createdAt,value
2019-04-01T00:00:12.213Z,80.60
2019-04-01T00:01:13.598Z,80.98
2019-04-01T00:02:14.983Z,81.17
2019-04-01T00:03:16.364Z,81.26
2019-04-01T00:04:17.740Z,81.74
2019-04-01T00:05:19.123Z,81.83
2019-04-01T00:06:20.506Z,81.55
2019-04-01T00:07:21.885Z,81.55
2019-04-01T00:08:23.258Z,81.26
2019-04-01T00:09:24.638Z,81.26
2019-04-01T00:10:26.025Z,81.07
2019-04-01T00:11:27.419Z,81.22
2019-04-01T00:12:28.800Z,81.51
2019-04-01T00:13:30.185Z,81.70
2019-04-01T00:14:31.569Z,82.07
2019-04-01T00:15:32.953Z,82.54
2019-04-01T00:16:34.332Z,82.54
2019-04-01T00:17:35.712Z,82.83
2019-04-01T00:18:37.098Z,83.21
2019-04-01T00:19:38.490Z,83.11
2019-04-01T00:20:39.893Z,82.92
2019-04-01T00:21:44.352Z,83.11
2019-04-01T00:22:42.630Z,83.68
2019-04-01T00:23:44.557Z,83.30
2019-04-01T00:24:45.935Z,83.40
2019-04-01T00:25:47.324Z,83.49
2019-04-01T00:26:48.665Z,83.78
2019-04-01T00:27:50.072Z,83.87
2019-04-01T00:28:51.455Z,83.68
2019-04-01T00:29:52.842Z,83.49
2019-04-01T00:30:54.214Z,83.87
2019-04-01T00:31:55.588Z,83.78
2019-04-01T00:32:56.972Z,83.78
2019-04-01T00:33:58.360Z,83.87
2019-04-01T00:34:59.742Z,83.68
2019-04-01T00:36:01.125Z,83.78
2019-04-01T00:37:02.520Z,83.59
2019-04-01T00:38:03.897Z,83.97
2019-04-01T00:39:05.279Z,83.97
2019-04-01T00:40:06.671Z,84.06
2019-04-01T00:41:08.053Z,84.16
2019-04-01T00:42:09.437Z,84.16
2019-04-01T00:43:10.817Z,83.97
2019-04-01T00:44:12.199Z,84.25
2019-04-01T00:45:13.592Z,84.16
2019-04-01T00:46:14.971Z,84.06
2019-04-01T00:47:16.357Z,84.06
2019-04-01T00:48:17.749Z,84.16
2019-04-01T00:49:19.129Z,84.53
2019-04-01T00:50:20.507Z,84.34
2019-04-01T00:51:21.892Z,84.34
2019-04-01T00:52:23.267Z,84.81
2019-04-01T00:53:24.656Z,84.63
2019-04-01T00:54:26.040Z,84.34
2019-04-01T00:55:27.424Z,84.25
2019-04-01T00:56:28.800Z,84.25
2019-04-01T00:57:30.178Z,84.53
2019-04-01T00:58:31.558Z,84.72
2019-04-01T00:59:32.955Z,84.34
2019-04-01T01:00:34.333Z,84.81
2019-04-01T01:01:35.716Z,84.25
2019-04-01T01:02:37.098Z,84.44
2019-04-01T01:03:38.480Z,84.44
2019-04-01T01:04:39.871Z,84.44
2019-04-01T01:05:41.252Z,85.00
2019-04-01T01:06:42.626Z,85.00
2019-04-01T01:07:44.007Z,84.44
2019-04-01T01:08:45.385Z,84.34
2019-04-01T01:09:46.777Z,84.63
2019-04-01T01:10:48.157Z,84.72
2019-04-01T01:11:49.543Z,84.81
2019-04-01T01:12:50.923Z,84.72
2019-04-01T01:13:52.311Z,84.63
2019-04-01T01:14:53.693Z,84.72
2019-04-01T01:15:55.069Z,84.53
2019-04-01T01:16:56.449Z,84.72
2019-04-01T01:17:57.841Z,84.53
2019-04-01T01:18:59.218Z,84.44
2019-04-01T01:20:00.594Z,84.53
2019-04-01T01:21:01.980Z,84.91
2019-04-01T01:22:03.359Z,84.81
2019-04-01T01:23:04.741Z,84.81
2019-04-01T01:24:06.137Z,84.91
2019-04-01T01:25:07.506Z,84.91
2019-04-01T01:26:08.886Z,85.00
2019-04-01T01:27:10.278Z,85.28
2019-04-01T01:28:11.658Z,85.00
2019-04-01T01:29:13.045Z,85.10
2019-04-01T01:30:14.422Z,85.19
2019-04-01T01:31:15.802Z,84.63
2019-04-01T01:32:17.140Z,84.81
2019-04-01T01:33:18.524Z,84.81
2019-04-01T01:34:19.898Z,84.81
2019-04-01T01:35:21.287Z,84.91
2019-04-01T01:36:22.669Z,85.00
2019-04-01T01:37:24.055Z,85.38
2019-04-01T01:38:25.437Z,85.28
2019-04-01T01:39:26.820Z,85.19
2019-04-01T01:40:28.197Z,85.10
2019-04-01T01:41:29.581Z,85.47
2019-04-01T01:42:30.961Z,85.19
2019-04-01T01:43:32.341Z,85.47
2019-04-01T01:44:33.726Z,85.47
2019-04-01T01:45:35.107Z,85.28
2019-04-01T01:46:36.495Z,85.76
2019-04-01T01:47:37.882Z,85.66
2019-04-01T01:48:39.253Z,85.47
2019-04-01T01:49:40.635Z,85.76
2019-04-01T01:50:42.020Z,85.95
2019-04-01T01:51:43.412Z,86.04
2019-04-01T01:52:44.792Z,86.52
2019-04-01T01:53:46.182Z,86.42
2019-04-01T01:54:47.567Z,86.52
2019-04-01T01:55:48.946Z,86.42
2019-04-01T01:56:50.336Z,86.71
2019-04-01T01:57:51.716Z,86.71
2019-04-01T01:58:53.102Z,86.99
2019-04-01T01:59:54.486Z,86.71
2019-04-01T02:00:55.820Z,87.18
2019-04-01T02:01:57.211Z,87.74
2019-04-01T02:02:58.594Z,87.65
2019-04-01T02:03:59.968Z,87.55
2019-04-01T02:05:01.347Z,87.27
2019-04-01T02:06:02.735Z,87.37
2019-04-01T02:07:04.109Z,87.65
2019-04-01T02:08:05.489Z,88.03
2019-04-01T02:09:06.867Z,88.60
2019-04-01T02:10:08.269Z,88.22
2019-04-01T02:11:09.635Z,88.22
2019-04-01T02:12:11.019Z,88.22
2019-04-01T02:13:12.407Z,87.84
2019-04-01T02:14:13.751Z,88.60
2019-04-01T02:15:15.129Z,88.79
2019-04-01T02:16:16.509Z,89.26
2019-04-01T02:17:17.900Z,89.07
2019-04-01T02:18:19.279Z,88.98
2019-04-01T02:19:20.674Z,88.79
2019-04-01T02:20:22.054Z,88.31
2019-04-01T02:21:23.426Z,88.41
2019-04-01T02:22:24.804Z,88.50
2019-04-01T02:23:26.187Z,88.03
2019-04-01T02:24:27.576Z,88.22
2019-04-01T02:25:28.961Z,88.22
2019-04-01T02:26:30.344Z,88.50
2019-04-01T02:27:31.738Z,88.03
2019-04-01T02:28:33.118Z,88.12
2019-04-01T02:29:34.499Z,87.55
2019-04-01T02:30:35.885Z,87.55
2019-04-01T02:31:37.261Z,87.55
2019-04-01T02:32:38.639Z,87.74
2019-04-01T02:33:40.023Z,87.46
2019-04-01T02:34:41.406Z,87.46
2019-04-01T02:35:43.572Z,87.46
2019-04-01T02:36:44.966Z,87.46
2019-04-01T02:37:46.339Z,87.65
2019-04-01T02:38:47.724Z,87.27
2019-04-01T02:39:49.097Z,87.74
2019-04-01T02:40:50.486Z,87.74
2019-04-01T02:41:51.879Z,87.65
2019-04-01T02:42:53.254Z,87.46
2019-04-01T02:43:54.636Z,87.65
2019-04-01T02:44:56.021Z,87.37
2019-04-01T02:45:57.399Z,87.46
2019-04-01T02:46:58.742Z,87.46
2019-04-01T02:48:00.127Z,87.55
2019-04-01T02:49:01.517Z,87.65
2019-04-01T02:50:02.941Z,87.46
2019-04-01T02:51:04.294Z,87.74
2019-04-01T02:52:05.675Z,87.46
2019-04-01T02:53:07.057Z,87.55
2019-04-01T02:54:08.438Z,87.65
2019-04-01T02:55:09.827Z,87.55
2019-04-01T02:56:11.216Z,87.37
2019-04-01T02:57:12.594Z,87.74
2019-04-01T02:58:13.973Z,87.27
2019-04-01T02:59:15.366Z,87.46
2019-04-01T03:00:16.743Z,87.65
2019-04-01T03:01:18.125Z,87.46
2019-04-01T03:02:19.512Z,87.27
2019-04-01T03:03:20.890Z,87.37
2019-04-01T03:04:22.726Z,87.93
2019-04-01T03:05:24.104Z,87.84
2019-04-01T03:06:25.483Z,88.31
2019-04-01T03:07:26.865Z,88.22
2019-04-01T03:08:28.242Z,88.22
2019-04-01T03:09:29.639Z,88.31
2019-04-01T03:10:31.027Z,88.22
2019-04-01T03:11:32.412Z,87.65
2019-04-01T03:12:33.918Z,87.74
2019-04-01T03:13:35.153Z,88.03
2019-04-01T03:14:36.528Z,88.50
2019-04-01T03:15:37.915Z,88.41
2019-04-01T03:16:39.299Z,88.60
2019-04-01T03:17:40.687Z,88.50
2019-04-01T03:18:43.034Z,88.31
2019-04-01T03:19:43.407Z,87.84
2019-04-01T03:20:44.801Z,87.93
2019-04-01T03:21:46.181Z,88.22
2019-04-01T03:22:47.566Z,87.98
2019-04-01T03:23:48.953Z,87.93
2019-04-01T03:24:50.346Z,87.65
2019-04-01T03:25:51.728Z,88.12
2019-04-01T03:26:53.119Z,87.98
2019-04-01T03:27:54.503Z,88.03
2019-04-01T03:28:55.895Z,88.22
2019-04-01T03:29:57.278Z,87.98
2019-04-01T03:30:58.680Z,87.74
2019-04-01T03:32:00.084Z,87.55
2019-04-01T03:33:01.448Z,87.51
2019-04-01T03:34:02.850Z,87.70
2019-04-01T03:35:04.262Z,87.84
2019-04-01T03:36:05.617Z,87.84
2019-04-01T03:37:07.016Z,88.03
2019-04-01T03:38:08.408Z,87.74
2019-04-01T03:39:09.795Z,87.98
2019-04-01T03:40:11.135Z,88.03
2019-04-01T03:41:12.527Z,87.65
2019-04-01T03:42:13.908Z,87.98
2019-04-01T03:43:15.290Z,87.61
2019-04-01T03:44:16.683Z,87.51
2019-04-01T03:45:18.065Z,88.08
2019-04-01T03:46:19.455Z,88.46
2019-04-01T03:47:20.834Z,88.36
2019-04-01T03:48:22.216Z,88.27
2019-04-01T03:49:23.605Z,88.46
2019-04-01T03:50:25.000Z,88.55
2019-04-01T03:51:26.374Z,88.84
2019-04-01T03:52:27.764Z,88.74
2019-04-01T03:53:29.153Z,88.55
2019-04-01T03:54:30.537Z,88.55
2019-04-01T03:55:31.930Z,89.07
2019-04-01T03:56:33.321Z,89.03
2019-04-01T03:57:34.708Z,89.03
2019-04-01T03:58:36.094Z,89.03
2019-04-01T03:59:37.481Z,88.84
2019-04-01T04:00:38.866Z,89.31
2019-04-01T04:01:40.268Z,89.03
2019-04-01T04:02:41.641Z,88.93
2019-04-01T04:03:43.019Z,88.84
2019-04-01T04:04:44.408Z,89.12
2019-04-01T04:05:45.753Z,88.93
2019-04-01T04:06:47.146Z,89.69
2019-04-01T04:07:48.538Z,89.69
2019-04-01T04:08:49.927Z,89.59
2019-04-01T04:09:51.314Z,89.69
2019-04-01T04:10:52.699Z,89.78
2019-04-01T04:11:54.099Z,89.97
2019-04-01T04:12:55.487Z,90.06
2019-04-01T04:13:56.871Z,89.69
2019-04-01T04:14:58.252Z,89.87
2019-04-01T04:15:59.635Z,89.59
2019-04-01T04:17:01.013Z,89.69
2019-04-01T04:18:02.406Z,89.69
2019-04-01T04:19:03.783Z,89.87
2019-04-01T04:20:05.173Z,90.06
2019-04-01T04:21:06.560Z,89.87
2019-04-01T04:22:07.952Z,90.54
2019-04-01T04:23:09.337Z,90.25
2019-04-01T04:24:10.736Z,90.63
2019-04-01T04:25:12.907Z,91.01
2019-04-01T04:26:14.300Z,90.82
2019-04-01T04:27:15.685Z,90.82
2019-04-01T04:28:17.101Z,90.73
2019-04-01T04:29:18.493Z,91.20
2019-04-01T04:30:19.878Z,91.20
2019-04-01T04:31:21.267Z,91.58
2019-04-01T04:32:22.653Z,91.01
2019-04-01T04:33:24.044Z,90.91
2019-04-01T04:34:25.437Z,91.20
2019-04-01T04:35:26.836Z,91.20
2019-04-01T04:36:28.221Z,90.91
2019-04-01T04:37:29.614Z,91.58
2019-04-01T04:38:30.999Z,92.05
2019-04-01T04:39:32.400Z,91.58
2019-04-01T04:40:33.781Z,91.77
2019-04-01T04:41:35.166Z,91.86
2019-04-01T04:42:36.582Z,92.14
2019-04-01T04:43:37.962Z,91.67
2019-04-01T04:44:39.368Z,91.77
2019-04-01T04:45:40.768Z,91.67
2019-04-01T04:46:42.254Z,91.96
2019-04-01T04:47:43.514Z,91.67
2019-04-01T04:48:44.903Z,92.05
2019-04-01T04:49:46.296Z,91.72
2019-04-01T04:50:47.693Z,91.67
2019-04-01T04:51:49.075Z,91.67
2019-04-01T04:52:50.469Z,91.43
2019-04-01T04:53:51.851Z,91.62
2019-04-01T04:54:53.251Z,91.43
2019-04-01T04:55:54.669Z,91.39
2019-04-01T04:56:56.041Z,91.86
2019-04-01T04:57:57.439Z,91.81
2019-04-01T04:58:58.833Z,91.81
2019-04-01T05:00:00.341Z,92.00
2019-04-01T05:01:01.571Z,91.43
2019-04-01T05:02:02.965Z,91.24
2019-04-01T05:03:04.358Z,90.86
2019-04-01T05:04:05.769Z,90.77
2019-04-01T05:05:07.160Z,90.96
2019-04-01T05:06:08.551Z,90.96
2019-04-01T05:07:09.929Z,90.86
2019-04-01T05:08:11.316Z,91.05
2019-04-01T05:09:12.706Z,91.39
2019-04-01T05:10:14.125Z,91.15
2019-04-01T05:11:15.532Z,90.91
2019-04-01T05:12:16.918Z,90.96
2019-04-01T05:13:18.304Z,90.96
2019-04-01T05:14:19.692Z,90.86
2019-04-01T05:15:21.082Z,90.77
2019-04-01T05:16:22.498Z,90.77
2019-04-01T05:17:23.888Z,90.77
2019-04-01T05:18:25.280Z,90.96
2019-04-01T05:19:26.699Z,90.77
2019-04-01T05:20:28.104Z,91.05
2019-04-01T05:21:29.504Z,90.96
2019-04-01T05:22:30.892Z,90.77
2019-04-01T05:23:32.274Z,90.77
2019-04-01T05:24:33.674Z,90.77
2019-04-01T05:25:35.075Z,90.20
2019-04-01T05:26:36.516Z,90.30
2019-04-01T05:27:37.905Z,90.30
2019-04-01T05:28:39.299Z,90.49
2019-04-01T05:29:40.696Z,90.49
2019-04-01T05:30:42.087Z,90.49
2019-04-01T05:31:43.493Z,90.30
2019-04-01T05:32:44.898Z,90.30
2019-04-01T05:33:55.221Z,91.05
2019-04-01T05:34:47.631Z,90.77
2019-04-01T05:35:49.017Z,90.77
2019-04-01T05:36:50.471Z,90.86
2019-04-01T05:37:51.752Z,90.68
2019-04-01T05:38:53.141Z,90.96
2019-04-01T05:39:54.523Z,90.30
2019-04-01T05:40:55.902Z,90.68
2019-04-01T05:41:57.292Z,90.86
2019-04-01T05:42:58.683Z,90.86
2019-04-01T05:44:02.257Z,90.39
2019-04-01T05:45:01.409Z,90.53
2019-04-01T05:46:02.794Z,90.25
2019-04-01T05:47:04.187Z,90.16
2019-04-01T05:48:05.564Z,90.34
2019-04-01T05:49:06.948Z,90.16
2019-04-01T05:50:08.330Z,89.78
2019-04-01T05:51:09.720Z,89.97
2019-04-01T05:52:11.769Z,89.97
2019-04-01T05:53:13.146Z,90.25
2019-04-01T05:54:14.541Z,90.16
2019-04-01T05:55:15.922Z,89.87
2019-04-01T05:56:17.423Z,89.87
2019-04-01T05:57:18.833Z,89.97
2019-04-01T05:58:20.227Z,89.59
2019-04-01T05:59:21.624Z,89.69
2019-04-01T06:00:23.004Z,89.02
2019-04-01T06:01:24.393Z,89.31
2019-04-01T06:02:25.785Z,88.64
2019-04-01T06:03:27.176Z,88.68
2019-04-01T06:04:28.556Z,88.97
2019-04-01T06:05:29.945Z,88.97
2019-04-01T06:06:31.333Z,88.78
2019-04-01T06:07:32.724Z,88.49
2019-04-01T06:08:34.105Z,88.49
2019-04-01T06:09:35.454Z,87.74
2019-04-01T06:10:36.835Z,87.74
2019-04-01T06:11:38.222Z,88.02
2019-04-01T06:12:39.612Z,86.98
2019-04-01T06:13:41.000Z,86.79
2019-04-01T06:14:42.390Z,87.02
2019-04-01T06:15:43.774Z,86.74
2019-04-01T06:16:45.163Z,86.18
2019-04-01T06:17:46.552Z,86.18
2019-04-01T06:18:47.944Z,85.51
2019-04-01T06:19:49.330Z,85.46
2019-04-01T06:20:50.716Z,84.32
2019-04-01T06:21:52.102Z,83.13
2019-04-01T06:22:53.496Z,81.37
2019-04-01T06:23:54.883Z,77.90
2019-04-01T06:24:56.266Z,75.19
2019-04-01T06:25:57.653Z,72.81
2019-04-01T06:26:59.042Z,70.00
2019-04-01T06:28:00.440Z,67.94
2019-04-01T06:29:01.824Z,65.60
2019-04-01T06:30:03.217Z,62.78
2019-04-01T06:31:04.607Z,61.29
2019-04-01T06:32:05.996Z,60.15
2019-04-01T06:33:07.390Z,58.25
2019-04-01T06:34:09.435Z,58.06
2019-04-01T06:35:10.891Z,57.29
2019-04-01T06:36:12.269Z,57.67
2019-04-01T06:37:13.668Z,58.12
2019-04-01T06:38:15.073Z,58.98
2019-04-01T06:39:16.451Z,59.55
2019-04-01T06:40:17.845Z,60.02
2019-04-01T06:41:19.235Z,59.64
2019-04-01T06:42:20.638Z,59.67
2019-04-01T06:43:22.034Z,58.72
2019-04-01T06:44:23.441Z,58.47
2019-04-01T06:45:24.870Z,58.11
2019-04-01T06:46:26.266Z,55.66
2019-04-01T06:47:27.662Z,54.10
2019-04-01T06:48:29.052Z,50.71
2019-04-01T06:49:30.450Z,47.89
2019-04-01T06:50:31.860Z,45.38
2019-04-01T06:51:33.258Z,41.21
2019-04-01T06:52:34.661Z,38.28
2019-04-01T06:53:36.119Z,36.28
2019-04-01T06:54:37.520Z,35.06
2019-04-01T06:55:38.944Z,33.93
2019-04-01T06:56:40.343Z,32.03
2019-04-01T06:57:41.740Z,31.08
2019-04-01T06:58:43.157Z,29.46
2019-04-01T06:59:44.565Z,28.91
2019-04-01T07:00:45.984Z,28.62
2019-04-01T07:01:47.395Z,28.42
2019-04-01T07:02:48.799Z,28.59
2019-04-01T07:03:50.200Z,28.86
2019-04-01T07:04:51.601Z,29.33
2019-04-01T07:05:53.002Z,30.66
2019-04-01T07:06:54.415Z,30.79
2019-04-01T07:07:55.816Z,29.62
2019-04-01T07:08:57.231Z,29.63
2019-04-01T07:09:58.717Z,29.36
2019-04-01T07:11:00.196Z,28.75
2019-04-01T07:12:01.488Z,29.25
2019-04-01T07:13:02.898Z,29.15
2019-04-01T07:14:04.307Z,29.15
2019-04-01T07:15:05.752Z,29.06
2019-04-01T07:16:15.424Z,29.57
2019-04-01T07:17:08.533Z,27.94
2019-04-01T07:18:09.932Z,27.17
2019-04-01T07:19:11.341Z,27.46
2019-04-01T07:20:12.749Z,27.66
2019-04-01T07:21:14.176Z,27.57
2019-04-01T07:22:15.597Z,26.50
2019-04-01T07:23:17.019Z,26.61
2019-04-01T07:24:18.439Z,26.12
2019-04-01T07:25:19.857Z,26.12
2019-04-01T07:26:21.269Z,26.40
2019-04-01T07:27:22.710Z,26.42
2019-04-01T07:28:24.130Z,25.18
2019-04-01T07:29:25.525Z,24.90
2019-04-01T07:30:26.931Z,24.61
2019-04-01T07:31:28.337Z,24.69
2019-04-01T07:32:29.803Z,24.90
2019-04-01T07:33:31.159Z,23.93
2019-04-01T07:34:32.565Z,24.03
2019-04-01T07:35:33.975Z,24.03
2019-04-01T07:36:35.386Z,23.76
2019-04-01T07:37:36.806Z,23.46
2019-04-01T07:38:38.208Z,23.58
2019-04-01T07:39:39.620Z,23.08
2019-04-01T07:40:41.035Z,23.29
2019-04-01T07:41:42.449Z,21.85
2019-04-01T07:42:43.855Z,21.47
2019-04-01T07:43:45.268Z,20.90
2019-04-01T07:44:46.685Z,19.45
2019-04-01T07:45:48.098Z,19.45
2019-04-01T07:46:49.599Z,19.27
2019-04-01T07:47:51.786Z,18.31
2019-04-01T07:48:52.251Z,18.49
2019-04-01T07:49:53.620Z,17.52
2019-04-01T07:50:55.027Z,16.86
2019-04-01T07:51:56.433Z,17.26
2019-04-01T07:52:57.848Z,16.01
2019-04-01T07:53:59.251Z,16.09
2019-04-01T07:55:00.662Z,16.19
2019-04-01T07:56:02.709Z,16.77
2019-04-01T07:57:03.458Z,16.19
2019-04-01T07:58:04.873Z,16.76
2019-04-01T07:59:06.278Z,17.21
2019-04-01T08:00:07.919Z,18.74
2019-04-01T08:01:09.338Z,20.05
2019-04-01T08:02:10.746Z,21.58
2019-04-01T08:03:12.155Z,23.21
2019-04-01T08:04:13.572Z,23.30
2019-04-01T08:05:14.979Z,23.11
2019-04-01T08:06:16.389Z,23.22
2019-04-01T08:07:17.800Z,21.19
2019-04-01T08:08:19.209Z,20.89
2019-04-01T08:09:20.630Z,21.15
2019-04-01T08:10:22.036Z,23.46
2019-04-01T08:11:23.444Z,25.45
2019-04-01T08:12:27.730Z,25.61
2019-04-01T08:13:26.232Z,26.27
2019-04-01T08:14:27.646Z,28.27
2019-04-01T08:15:29.044Z,29.60
2019-04-01T08:16:30.460Z,30.06
2019-04-01T08:17:31.864Z,30.64
2019-04-01T08:18:34.073Z,31.29
2019-04-01T08:19:34.649Z,31.77
2019-04-01T08:20:36.057Z,31.96
2019-04-01T08:21:37.433Z,31.58
2019-04-01T08:22:38.846Z,32.54
2019-04-01T08:23:40.258Z,32.52
2019-04-01T08:24:41.661Z,31.87
2019-04-01T08:25:43.138Z,31.59
2019-04-01T08:26:44.525Z,31.30
2019-04-01T08:27:45.933Z,32.54
2019-04-01T08:28:47.333Z,32.84
2019-04-01T08:29:48.737Z,32.73
2019-04-01T08:30:50.145Z,31.77
2019-04-01T08:31:51.551Z,32.15
2019-04-01T08:32:52.954Z,31.96
2019-04-01T08:33:54.362Z,32.90
2019-04-01T08:34:55.781Z,33.07
2019-04-01T08:35:57.182Z,32.98
2019-04-01T08:36:58.580Z,33.25
2019-04-01T08:38:00.005Z,33.83
2019-04-01T08:39:01.406Z,34.00
2019-04-01T08:40:02.811Z,35.33
2019-04-01T08:41:04.230Z,37.24
2019-04-01T08:42:05.745Z,37.05
2019-04-01T08:43:07.039Z,37.46
2019-04-01T08:44:08.455Z,36.92
2019-04-01T08:45:09.860Z,34.85
2019-04-01T08:46:11.342Z,31.61
2019-04-01T08:47:12.760Z,30.97
2019-04-01T08:48:14.179Z,29.75
2019-04-01T08:49:15.672Z,26.61
2019-04-01T08:50:17.077Z,25.40
2019-04-01T08:51:18.487Z,23.96
2019-04-01T08:52:19.919Z,23.22
2019-04-01T08:53:21.317Z,22.19
2019-04-01T08:54:22.730Z,20.83
2019-04-01T08:55:24.137Z,21.42
2019-04-01T08:56:25.537Z,21.24
2019-04-01T08:57:26.952Z,21.06
2019-04-01T08:58:28.351Z,20.01
2019-04-01T08:59:29.758Z,19.28
2019-04-01T09:00:31.150Z,17.83
2019-04-01T09:01:35.410Z,17.44
2019-04-01T09:02:33.932Z,17.62
2019-04-01T09:03:35.338Z,17.24
2019-04-01T09:04:36.744Z,17.24
2019-04-01T09:05:38.162Z,16.88
2019-04-01T09:06:39.574Z,15.52
2019-04-01T09:07:41.024Z,15.06
2019-04-01T09:08:42.454Z,13.79
2019-04-01T09:09:43.868Z,13.79
2019-04-01T09:10:45.271Z,13.51
2019-04-01T09:11:46.700Z,13.51
2019-04-01T09:12:48.130Z,13.41
2019-04-01T09:13:49.540Z,13.32
2019-04-01T09:14:50.951Z,13.59
2019-04-01T09:15:52.362Z,14.36
2019-04-01T09:16:53.772Z,14.75
2019-04-01T09:17:55.189Z,14.37
2019-04-01T09:18:56.687Z,14.11
2019-04-01T09:19:58.099Z,12.87
2019-04-01T09:20:59.549Z,12.02
2019-04-01T09:22:00.962Z,10.96
2019-04-01T09:23:02.368Z,9.90
2019-04-01T09:24:03.808Z,9.02
2019-04-01T09:25:05.218Z,8.53
2019-04-01T09:26:06.680Z,7.95
2019-04-01T09:27:08.110Z,8.34
2019-04-01T09:28:09.527Z,7.56
2019-04-01T09:29:11.828Z,7.46
2019-04-01T09:30:13.253Z,7.66
2019-04-01T09:31:14.702Z,7.85
2019-04-01T09:32:16.115Z,7.85
2019-04-01T09:33:17.552Z,7.86
2019-04-01T09:34:19.019Z,7.46
2019-04-01T09:35:20.434Z,7.37
2019-04-01T09:36:21.847Z,7.08
2019-04-01T09:37:23.261Z,7.08
2019-04-01T09:38:24.677Z,7.48
2019-04-01T09:39:26.101Z,7.09
2019-04-01T09:40:27.539Z,7.39
2019-04-01T09:41:28.955Z,6.70
2019-04-01T09:42:30.375Z,6.79
2019-04-01T09:43:31.797Z,7.18
2019-04-01T09:44:37.065Z,6.99
2019-04-01T09:45:34.602Z,6.40
2019-04-01T09:46:36.002Z,6.10
2019-04-01T09:47:37.422Z,6.20
2019-04-01T09:48:38.833Z,7.17
2019-04-01T09:49:40.257Z,7.28
2019-04-01T09:50:41.677Z,7.07
2019-04-01T09:51:48.970Z,6.77
2019-04-01T09:52:44.475Z,7.56
2019-04-01T09:53:45.880Z,7.27
2019-04-01T09:54:47.294Z,6.88
2019-04-01T09:55:48.719Z,7.37
2019-04-01T09:56:50.139Z,6.87
2019-04-01T09:57:51.553Z,7.46
2019-04-01T09:58:52.968Z,7.76
2019-04-01T09:59:54.481Z,7.56
2019-04-01T10:00:55.783Z,6.87
2019-04-01T10:01:57.200Z,7.26
2019-04-01T10:02:58.614Z,7.17
2019-04-01T10:04:00.035Z,7.17
2019-04-01T10:05:01.456Z,7.46
2019-04-01T10:06:02.885Z,7.07
2019-04-01T10:07:04.377Z,7.37
2019-04-01T10:08:05.704Z,7.45
2019-04-01T10:09:07.121Z,7.65
2019-04-01T10:10:08.550Z,7.74
2019-04-01T10:11:12.482Z,7.84
2019-04-01T10:12:11.367Z,8.61
2019-04-01T10:13:12.807Z,8.71
2019-04-01T10:14:14.227Z,8.41
2019-04-01T10:15:15.670Z,8.80
2019-04-01T10:16:17.095Z,8.50
2019-04-01T10:17:18.540Z,9.08
2019-04-01T10:18:19.936Z,9.75
2019-04-01T10:19:21.367Z,10.63
2019-04-01T10:20:22.811Z,10.14
2019-04-01T10:21:24.252Z,10.04
2019-04-01T10:22:25.660Z,10.21
2019-04-01T10:23:27.079Z,11.46
2019-04-01T10:24:28.523Z,12.24
2019-04-01T10:25:29.996Z,11.95
2019-04-01T10:26:31.450Z,11.76
2019-04-01T10:27:32.893Z,12.15
2019-04-01T10:28:34.320Z,12.06
2019-04-01T10:29:35.758Z,11.87
2019-04-01T10:30:37.177Z,11.66
2019-04-01T10:31:38.621Z,12.05
2019-04-01T10:32:40.052Z,13.21
2019-04-01T10:33:41.503Z,13.09
2019-04-01T10:34:42.913Z,13.67
2019-04-01T10:35:44.335Z,13.76
2019-04-01T10:36:45.743Z,14.23
2019-04-01T10:37:47.162Z,14.90
2019-04-01T10:38:48.576Z,15.38
2019-04-01T10:39:49.997Z,16.44
2019-04-01T10:40:51.407Z,17.21
2019-04-01T10:41:52.823Z,17.00
2019-04-01T10:42:54.231Z,16.61
2019-04-01T10:43:55.641Z,16.79
2019-04-01T10:44:57.054Z,16.69
2019-04-01T10:45:58.471Z,16.69
2019-04-01T10:46:59.928Z,16.50
2019-04-01T10:48:01.320Z,16.80
2019-04-01T10:49:02.696Z,16.12
2019-04-01T10:50:04.759Z,17.19
2019-04-01T10:51:06.054Z,15.94
2019-04-01T10:52:07.480Z,15.84
2019-04-01T10:53:08.907Z,15.45
2019-04-01T10:54:10.336Z,16.14
2019-04-01T10:55:11.753Z,15.95
2019-04-01T10:56:13.175Z,16.82
2019-04-01T10:57:14.555Z,17.02
2019-04-01T10:58:15.927Z,15.56
2019-04-01T10:59:17.258Z,15.76
2019-04-01T11:00:18.598Z,16.23
2019-04-01T11:01:20.049Z,16.70
2019-04-01T11:02:21.436Z,17.73
2019-04-01T11:03:22.820Z,19.26
2019-04-01T11:04:24.802Z,20.12
2019-04-01T11:05:26.172Z,20.11
2019-04-01T11:06:27.642Z,20.68
2019-04-01T11:07:29.071Z,21.56
2019-04-01T11:08:30.425Z,20.98
2019-04-01T11:09:38.242Z,20.02
2019-04-01T11:10:33.207Z,19.54
2019-04-01T11:11:34.621Z,19.73
2019-04-01T11:12:36.031Z,19.45
2019-04-01T11:13:37.437Z,20.70
2019-04-01T11:14:38.855Z,20.70
2019-04-01T11:15:40.267Z,19.75
2019-04-01T11:16:41.670Z,19.47
2019-04-01T11:17:43.913Z,19.38
2019-04-01T11:18:44.466Z,18.71
2019-04-01T11:19:45.891Z,18.80
2019-04-01T11:20:47.313Z,18.80
2019-04-01T11:21:48.728Z,19.47
2019-04-01T11:22:50.149Z,18.01
2019-04-01T11:23:51.544Z,18.96
2019-04-01T11:24:52.978Z,18.48
2019-04-01T11:25:54.390Z,18.58
2019-04-01T11:26:55.800Z,18.16
2019-04-01T11:27:57.206Z,19.23
2019-04-01T11:28:58.620Z,19.61
2019-04-01T11:30:00.027Z,20.00
2019-04-01T11:31:01.454Z,20.38
2019-04-01T11:32:02.839Z,20.00
2019-04-01T11:33:07.318Z,20.10
2019-04-01T11:34:05.632Z,21.06
2019-04-01T11:35:07.087Z,20.76
2019-04-01T11:36:08.536Z,20.85
2019-04-01T11:37:09.912Z,21.61
2019-04-01T11:38:11.337Z,22.86
2019-04-01T11:39:12.767Z,22.96
2019-04-01T11:40:14.170Z,22.76
2019-04-01T11:41:15.637Z,22.84
2019-04-01T11:42:16.923Z,23.32
2019-04-01T11:43:18.342Z,23.88
2019-04-01T11:44:19.764Z,23.50
2019-04-01T11:45:22.482Z,22.54
2019-04-01T11:46:23.224Z,22.54
2019-04-01T11:47:23.954Z,22.16
2019-04-01T11:48:25.323Z,22.45
2019-04-01T11:49:26.778Z,21.97
2019-04-01T11:50:28.228Z,23.01
2019-04-01T11:51:32.963Z,23.01
2019-04-01T11:52:30.966Z,23.41
2019-04-01T11:53:32.370Z,23.88
2019-04-01T11:54:33.776Z,24.85
2019-04-01T11:55:35.181Z,24.56
2019-04-01T11:56:36.590Z,25.42
2019-04-01T11:57:38.011Z,25.21
2019-04-01T11:58:39.414Z,26.08
2019-04-01T11:59:40.829Z,25.98
2019-04-01T12:00:42.228Z,25.79
2019-04-01T12:01:43.639Z,26.45
2019-04-01T12:02:46.149Z,27.31
2019-04-01T12:03:46.405Z,28.37
2019-04-01T12:04:47.802Z,28.27
2019-04-01T12:05:49.222Z,26.54
2019-04-01T12:06:50.618Z,26.34
2019-04-01T12:07:52.008Z,26.53
2019-04-01T12:08:53.412Z,27.20
2019-04-01T12:09:55.296Z,26.34
2019-04-01T12:10:56.179Z,26.25
2019-04-01T12:11:57.589Z,26.81
2019-04-01T12:12:59.970Z,27.58
2019-04-01T12:14:00.365Z,28.23
2019-04-01T12:15:01.782Z,28.42
2019-04-01T12:16:03.169Z,28.63
2019-04-01T12:17:04.571Z,28.44
2019-04-01T12:18:05.975Z,29.11
2019-04-01T12:19:07.383Z,29.77
2019-04-01T12:20:09.543Z,29.30
2019-04-01T12:21:10.146Z,29.97
2019-04-01T12:22:11.606Z,29.39
2019-04-01T12:23:13.719Z,28.61
2019-04-01T12:24:14.302Z,28.70
2019-04-01T12:25:15.704Z,29.28
2019-04-01T12:26:17.616Z,29.08
2019-04-01T12:27:18.478Z,29.17
2019-04-01T12:28:19.878Z,29.17
2019-04-01T12:29:21.286Z,30.21
2019-04-01T12:30:22.687Z,30.40
2019-04-01T12:31:24.095Z,30.40
2019-04-01T12:32:25.499Z,30.21
2019-04-01T12:33:26.918Z,31.16
2019-04-01T12:34:28.339Z,32.21
2019-04-01T12:35:29.975Z,32.41
2019-04-01T12:36:31.411Z,31.74
2019-04-01T12:37:32.828Z,31.26
2019-04-01T12:38:34.245Z,31.07
2019-04-01T12:39:35.653Z,31.45
2019-04-01T12:40:37.484Z,31.64
2019-04-01T12:41:40.257Z,31.84
2019-04-01T12:42:41.707Z,30.88
2019-04-01T12:43:43.135Z,30.59
2019-04-01T12:44:44.545Z,29.92
2019-04-01T12:45:45.948Z,30.40
2019-04-01T12:46:47.354Z,30.98
2019-04-01T12:47:48.774Z,31.05
2019-04-01T12:48:50.186Z,31.63
2019-04-01T12:49:51.624Z,31.82
2019-04-01T12:50:53.041Z,31.53
2019-04-01T12:51:58.108Z,31.80
2019-04-01T12:52:55.814Z,32.57
2019-04-01T12:53:57.216Z,32.18
2019-04-01T12:55:00.936Z,31.71
2019-04-01T12:56:00.047Z,32.37
2019-04-01T12:57:01.447Z,32.37
2019-04-01T12:58:02.863Z,33.33
2019-04-01T12:59:04.254Z,32.76
2019-04-01T13:00:05.709Z,32.86
2019-04-01T13:01:07.121Z,33.04
2019-04-01T13:02:08.532Z,32.57
2019-04-01T13:03:09.936Z,31.99
2019-04-01T13:04:11.337Z,31.61
2019-04-01T13:05:12.747Z,32.09
2019-04-01T13:06:14.137Z,31.61
2019-04-01T13:07:15.539Z,31.42
2019-04-01T13:08:16.943Z,31.61
2019-04-01T13:09:18.379Z,31.23
2019-04-01T13:10:20.312Z,30.85
2019-04-01T13:11:21.139Z,30.56
2019-04-01T13:12:22.544Z,31.04